createdAt,value
2018-05-16T00:02:23.628Z,15.60
2018-05-16T00:04:54.804Z,15.60
2018-05-16T00:07:22.599Z,15.60
2018-05-16T00:09:50.310Z,15.60
2018-05-16T00:12:20.531Z,15.40
2018-05-16T00:14:51.969Z,15.40
2018-05-16T00:17:24.661Z,15.40
2018-05-16T00:19:53.373Z,15.30
2018-05-16T00:22:21.127Z,15.30
2018-05-16T00:24:48.658Z,15.30
2018-05-16T00:27:17.245Z,15.30
2018-05-16T00:29:49.039Z,15.30
2018-05-16T00:32:17.715Z,15.20
2018-05-16T00:34:47.939Z,15.10
2018-05-16T00:37:15.452Z,15.10
2018-05-16T00:39:43.400Z,15.10
2018-05-16T00:42:13.127Z,15.10
2018-05-16T00:44:40.817Z,15.00
2018-05-16T00:47:09.508Z,15.00
2018-05-16T00:49:43.102Z,15.00
2018-05-16T00:52:10.610Z,14.90
2018-05-16T00:54:40.193Z,14.90
2018-05-16T00:57:07.740Z,14.90
2018-05-16T00:59:40.938Z,14.90
2018-05-16T01:02:09.632Z,14.80
2018-05-16T01:04:41.301Z,14.80
2018-05-16T01:07:11.009Z,14.70
2018-05-16T01:09:42.738Z,14.70
2018-05-16T01:12:14.211Z,14.70
2018-05-16T01:14:43.834Z,14.70
2018-05-16T01:17:14.051Z,14.60
2018-05-16T01:19:41.614Z,14.60
2018-05-16T01:22:12.945Z,14.60
2018-05-16T01:24:45.947Z,14.50
2018-05-16T01:27:15.543Z,14.50
2018-05-16T01:29:45.476Z,14.50
2018-05-16T01:32:14.160Z,14.50
2018-05-16T01:34:42.833Z,14.40
2018-05-16T01:37:10.615Z,14.40
2018-05-16T01:39:38.133Z,14.40
2018-05-16T01:42:05.836Z,14.30
2018-05-16T01:44:35.161Z,14.30
2018-05-16T01:47:03.809Z,14.30
2018-05-16T01:49:37.150Z,14.30
2018-05-16T01:52:05.812Z,14.30
2018-05-16T01:54:33.312Z,14.30
2018-05-16T01:57:01.040Z,14.20
2018-05-16T01:59:35.198Z,14.20
2018-05-16T02:02:04.256Z,14.20
2018-05-16T02:04:31.754Z,14.20
2018-05-16T02:07:02.844Z,14.10
2018-05-16T02:09:32.468Z,14.10
2018-05-16T02:12:00.238Z,14.10
2018-05-16T02:14:29.836Z,14.10
2018-05-16T02:16:57.361Z,14.10
2018-05-16T02:19:29.949Z,14.10
2018-05-16T02:21:58.656Z,14.00
2018-05-16T02:24:27.338Z,14.00
2018-05-16T02:26:54.846Z,14.00
2018-05-16T02:29:23.490Z,13.90
2018-05-16T02:31:53.715Z,13.80
2018-05-16T02:34:23.362Z,13.80
2018-05-16T02:36:51.690Z,13.80
2018-05-16T02:39:19.270Z,13.80
2018-05-16T02:41:48.773Z,13.80
2018-05-16T02:44:18.976Z,13.90
2018-05-16T02:46:46.482Z,13.80
2018-05-16T02:49:17.957Z,13.80
2018-05-16T02:51:45.697Z,13.80
2018-05-16T02:54:16.819Z,13.90
2018-05-16T02:56:46.126Z,14.00
2018-05-16T02:59:15.412Z,14.00
2018-05-16T03:01:45.328Z,13.90
2018-05-16T03:04:16.170Z,14.00
2018-05-16T03:06:48.482Z,14.00
2018-05-16T03:09:16.948Z,14.00
2018-05-16T03:11:47.765Z,14.00
2018-05-16T03:14:18.616Z,13.90
2018-05-16T03:16:52.698Z,13.90
2018-05-16T03:19:25.160Z,13.80
2018-05-16T03:21:58.020Z,13.90
2018-05-16T03:24:31.468Z,13.80
2018-05-16T03:27:10.584Z,13.80
2018-05-16T03:29:42.960Z,13.80
2018-05-16T03:32:21.466Z,13.80
2018-05-16T03:34:50.186Z,13.80
2018-05-16T03:37:18.858Z,13.70
2018-05-16T03:39:47.574Z,13.70
2018-05-16T03:42:16.254Z,13.70
2018-05-16T03:44:45.833Z,13.70
2018-05-16T03:47:13.341Z,13.70
2018-05-16T03:49:41.058Z,13.80
2018-05-16T03:52:08.562Z,13.80
2018-05-16T03:54:41.526Z,13.80
2018-05-16T03:57:22.999Z,13.90
2018-05-16T04:00:02.310Z,13.90
2018-05-16T04:02:41.850Z,14.00
2018-05-16T04:05:11.288Z,14.10
2018-05-16T04:07:42.435Z,14.10
2018-05-16T04:10:11.126Z,14.10
2018-05-16T04:12:51.807Z,14.20
2018-05-16T04:15:28.732Z,14.10
2018-05-16T04:17:57.462Z,14.20
2018-05-16T04:20:40.214Z,14.20
2018-05-16T04:23:22.102Z,14.20
2018-05-16T04:25:52.089Z,14.20
2018-05-16T04:28:29.983Z,14.20
2018-05-16T04:31:03.858Z,14.20
2018-05-16T04:33:32.624Z,14.40
2018-05-16T04:36:01.319Z,14.50
2018-05-16T04:38:29.044Z,14.50
2018-05-16T04:40:57.770Z,14.70
2018-05-16T04:43:30.425Z,14.70
2018-05-16T04:46:10.174Z,14.80
2018-05-16T04:48:44.066Z,14.90
2018-05-16T04:51:18.948Z,14.90
2018-05-16T04:53:47.581Z,14.90
2018-05-16T04:56:21.788Z,14.90
2018-05-16T04:59:00.614Z,14.90
2018-05-16T05:01:40.396Z,14.90
2018-05-16T05:04:12.753Z,14.90
2018-05-16T05:06:47.584Z,14.90
2018-05-16T05:09:18.736Z,14.90
2018-05-16T05:11:58.734Z,15.00
2018-05-16T05:14:29.316Z,15.10
2018-05-16T05:17:00.580Z,15.10
2018-05-16T05:19:31.304Z,15.20
2018-05-16T05:22:01.583Z,15.20
2018-05-16T05:24:31.126Z,15.20
2018-05-16T05:27:10.262Z,15.30
2018-05-16T05:29:50.857Z,15.40
2018-05-16T05:32:19.394Z,15.50
2018-05-16T05:34:49.008Z,15.60
2018-05-16T05:37:16.683Z,15.70
2018-05-16T05:39:46.418Z,16.00
2018-05-16T05:42:18.346Z,16.00
2018-05-16T05:45:05.206Z,16.20
2018-05-16T05:47:34.154Z,16.40
2018-05-16T05:50:08.678Z,16.60
2018-05-16T05:52:38.317Z,16.60
2018-05-16T05:55:06.055Z,16.60
2018-05-16T05:57:33.594Z,16.70
2018-05-16T06:00:02.262Z,16.80
2018-05-16T06:02:29.980Z,16.80
2018-05-16T06:05:09.098Z,16.90
2018-05-16T06:07:38.742Z,17.00
2018-05-16T06:10:10.796Z,17.20
2018-05-16T06:12:45.360Z,17.50
2018-05-16T06:15:13.074Z,17.40
2018-05-16T06:17:57.984Z,17.60
2018-05-16T06:20:44.791Z,17.70
2018-05-16T06:23:13.214Z,17.70
2018-05-16T06:25:58.456Z,17.70
2018-05-16T06:28:26.884Z,17.80
2018-05-16T06:31:12.099Z,18.00
2018-05-16T06:33:40.567Z,18.00
2018-05-16T06:36:11.383Z,17.90
2018-05-16T06:38:49.901Z,17.90
2018-05-16T06:41:21.960Z,18.00
2018-05-16T06:44:02.912Z,18.30
2018-05-16T06:46:30.477Z,18.20
2018-05-16T06:48:58.197Z,18.40
2018-05-16T06:51:26.875Z,18.30
2018-05-16T06:53:57.087Z,18.40
2018-05-16T06:56:24.734Z,18.40
2018-05-16T06:58:58.445Z,18.60
2018-05-16T07:01:31.760Z,18.80
2018-05-16T07:04:16.488Z,18.70
2018-05-16T07:06:49.979Z,18.60
2018-05-16T07:09:19.610Z,18.60
2018-05-16T07:12:06.783Z,18.30
2018-05-16T07:14:35.457Z,18.20
2018-05-16T07:17:03.198Z,17.90
2018-05-16T07:19:47.256Z,17.90
2018-05-16T07:22:20.012Z,18.00
2018-05-16T07:25:00.809Z,18.30
2018-05-16T07:27:34.162Z,18.60
2018-05-16T07:30:09.601Z,18.80
2018-05-16T07:32:55.770Z,18.80
2018-05-16T07:35:44.292Z,18.60
2018-05-16T07:38:14.049Z,18.70
2018-05-16T07:40:42.865Z,18.70
2018-05-16T07:43:11.478Z,18.70
2018-05-16T07:45:38.978Z,18.60
2018-05-16T07:48:11.938Z,18.50
2018-05-16T07:50:51.311Z,18.60
2018-05-16T07:53:24.660Z,18.40
2018-05-16T07:55:59.203Z,18.30
2018-05-16T07:58:28.811Z,18.20
2018-05-16T08:00:56.564Z,18.10
2018-05-16T08:03:35.655Z,18.10
2018-05-16T08:06:03.159Z,18.00
2018-05-16T08:08:30.892Z,18.10
2018-05-16T08:11:10.012Z,18.10
2018-05-16T08:13:57.805Z,18.10
2018-05-16T08:16:28.927Z,18.00
2018-05-16T08:19:00.967Z,17.80
2018-05-16T08:21:40.982Z,18.00
2018-05-16T08:24:10.647Z,18.10
2018-05-16T08:26:40.266Z,18.10
2018-05-16T08:29:07.762Z,18.30
2018-05-16T08:31:36.389Z,18.30
2018-05-16T08:34:10.006Z,18.30
2018-05-16T08:36:38.678Z,18.40
2018-05-16T08:39:17.182Z,18.50
2018-05-16T08:41:47.114Z,18.20
2018-05-16T08:44:15.821Z,18.30
2018-05-16T08:46:44.173Z,18.70
2018-05-16T08:49:22.354Z,18.70
2018-05-16T08:51:55.980Z,18.80
2018-05-16T08:54:23.482Z,18.90
2018-05-16T08:56:51.062Z,18.60
2018-05-16T08:59:26.632Z,18.50
2018-05-16T09:02:06.078Z,18.60
2018-05-16T09:04:47.026Z,18.60
2018-05-16T09:07:28.006Z,18.50
2018-05-16T09:09:56.454Z,18.70
2018-05-16T09:12:23.955Z,18.90
2018-05-16T09:14:58.722Z,18.80
2018-05-16T09:17:26.317Z,19.20
2018-05-16T09:22:58.559Z,19.30
2018-05-16T09:28:27.268Z,19.40
2018-05-16T09:31:00.586Z,19.50
2018-05-16T09:33:51.425Z,19.80
2018-05-16T09:36:32.620Z,20.00
2018-05-16T09:41:54.321Z,19.60
2018-05-16T09:44:23.326Z,19.60
2018-05-16T09:46:51.682Z,19.90
2018-05-16T09:49:23.159Z,19.90
2018-05-16T09:51:56.142Z,20.10
2018-05-16T09:54:24.881Z,20.10
2018-05-16T09:56:57.198Z,19.80
2018-05-16T09:59:30.785Z,19.70
2018-05-16T10:02:05.036Z,19.60
2018-05-16T10:04:37.491Z,19.70
2018-05-16T10:07:06.120Z,19.40
2018-05-16T10:09:39.120Z,19.20
2018-05-16T10:12:10.220Z,19.30
2018-05-16T10:14:45.337Z,19.30
2018-05-16T10:17:21.472Z,19.30
2018-05-16T10:19:48.944Z,19.10
2018-05-16T10:22:18.500Z,18.80
2018-05-16T10:24:46.244Z,18.70
2018-05-16T10:27:27.810Z,18.50
2018-05-16T10:29:58.679Z,18.40
2018-05-16T10:32:34.443Z,18.20
2018-05-16T10:35:05.550Z,18.10
2018-05-16T10:37:34.790Z,18.30
2018-05-16T10:40:10.971Z,18.30
2018-05-16T10:42:38.710Z,18.10
2018-05-16T10:47:48.440Z,17.60
2018-05-16T10:50:17.820Z,17.60
2018-05-16T10:52:47.226Z,17.60
2018-05-16T11:01:00.969Z,17.90
2018-05-16T11:03:30.411Z,18.10
2018-05-16T11:05:58.034Z,18.10
2018-05-16T11:08:30.311Z,18.20
2018-05-16T11:11:00.936Z,18.10
2018-05-16T11:13:35.752Z,18.00
2018-05-16T11:16:10.558Z,18.00
2018-05-16T11:18:39.276Z,17.80
2018-05-16T11:21:12.011Z,17.70
2018-05-16T11:23:44.556Z,17.70
2018-05-16T11:26:12.898Z,17.90
2018-05-16T11:28:43.102Z,17.90
2018-05-16T11:31:22.063Z,17.70
2018-05-16T11:34:02.330Z,17.60
2018-05-16T11:36:35.183Z,17.70
2018-05-16T11:39:02.859Z,17.70
2018-05-16T11:41:37.617Z,17.90
2018-05-16T11:44:07.308Z,17.80
2018-05-16T11:46:41.506Z,17.90
2018-05-16T11:49:17.232Z,17.90
2018-05-16T11:51:45.968Z,18.20
2018-05-16T11:54:19.262Z,18.20
2018-05-16T11:56:51.344Z,18.10
2018-05-16T11:59:28.886Z,18.30
2018-05-16T12:01:58.544Z,18.50
2018-05-16T12:04:30.614Z,18.50
2018-05-16T12:07:02.663Z,18.80
2018-05-16T12:09:37.778Z,18.60
2018-05-16T12:12:20.316Z,18.50
2018-05-16T12:14:48.751Z,18.80
2018-05-16T12:17:17.392Z,18.80
2018-05-16T12:19:59.219Z,18.70
2018-05-16T12:22:26.755Z,18.80
2018-05-16T12:24:54.286Z,19.00
2018-05-16T12:27:26.270Z,19.00
2018-05-16T12:29:58.337Z,19.00
2018-05-16T12:32:25.850Z,19.20
2018-05-16T12:35:07.003Z,19.50
2018-05-16T12:37:34.548Z,19.70
2018-05-16T12:40:05.408Z,19.70
2018-05-16T12:42:50.592Z,19.60
2018-05-16T12:45:18.095Z,19.80
2018-05-16T12:47:53.580Z,20.20
2018-05-16T12:50:23.161Z,20.50
2018-05-16T12:52:50.670Z,20.50
2018-05-16T12:55:30.024Z,20.50
2018-05-16T12:57:57.531Z,20.30
2018-05-16T13:00:32.942Z,20.70
2018-05-16T13:03:11.751Z,20.60
2018-05-16T13:05:44.778Z,20.70
2018-05-16T13:08:12.298Z,20.80
2018-05-16T13:10:40.922Z,20.60
2018-05-16T13:13:09.274Z,21.10
2018-05-16T13:15:40.456Z,21.10
2018-05-16T13:18:14.060Z,21.30
2018-05-16T13:20:48.518Z,21.50
2018-05-16T13:23:17.264Z,21.20
2018-05-16T13:25:48.698Z,21.40
2018-05-16T13:28:18.326Z,21.40
2018-05-16T13:33:43.630Z,20.90
2018-05-16T13:36:22.183Z,21.30
2018-05-16T13:38:50.868Z,21.40
2018-05-16T13:41:20.452Z,21.50
2018-05-16T13:43:59.882Z,21.40
2018-05-16T13:46:27.395Z,21.60
2018-05-16T13:48:55.110Z,22.10
2018-05-16T13:51:27.532Z,22.20
2018-05-16T13:53:59.552Z,21.90
2018-05-16T13:56:32.868Z,21.60
2018-05-16T13:59:03.061Z,21.30
2018-05-16T14:01:34.833Z,21.30
2018-05-16T14:04:06.887Z,21.20
2018-05-16T14:06:38.968Z,21.40
2018-05-16T14:09:08.568Z,21.50
2018-05-16T14:11:41.877Z,21.20
2018-05-16T14:14:13.934Z,21.20
2018-05-16T14:16:54.276Z,21.20
2018-05-16T14:19:36.427Z,21.20
2018-05-16T14:22:04.898Z,21.20
2018-05-16T14:24:36.027Z,21.30
2018-05-16T14:27:04.720Z,21.50
2018-05-16T14:29:43.219Z,21.60
2018-05-16T14:32:12.844Z,21.70
2018-05-16T14:34:46.477Z,21.80
2018-05-16T14:37:16.112Z,21.70
2018-05-16T14:39:48.133Z,21.90
2018-05-16T14:42:27.533Z,21.80
2018-05-16T14:44:55.216Z,21.50
2018-05-16T14:47:27.127Z,21.10
2018-05-16T14:50:06.509Z,21.00
2018-05-16T14:52:38.007Z,20.70
2018-05-16T14:55:08.821Z,20.60
2018-05-16T14:57:43.342Z,20.60
2018-05-16T15:00:17.988Z,20.50
2018-05-16T15:03:10.246Z,20.30
2018-05-16T15:05:41.380Z,20.30
2018-05-16T15:08:13.120Z,20.20
2018-05-16T15:10:40.640Z,20.00
2018-05-16T15:13:18.758Z,19.80
2018-05-16T15:15:48.378Z,19.80
2018-05-16T15:18:36.769Z,19.80
2018-05-16T15:21:06.352Z,19.90
2018-05-16T15:23:35.688Z,20.00
2018-05-16T15:26:03.426Z,19.90
2018-05-16T15:28:44.022Z,19.80
2018-05-16T15:31:15.582Z,20.00
2018-05-16T15:33:51.263Z,20.10
2018-05-16T15:36:23.681Z,20.10
2018-05-16T15:38:52.335Z,20.40
2018-05-16T15:41:21.075Z,20.30
2018-05-16T15:44:02.558Z,20.30
2018-05-16T15:46:32.234Z,20.10
2018-05-16T15:48:59.828Z,20.10
2018-05-16T15:51:27.455Z,19.80
2018-05-16T15:53:55.028Z,19.70
2018-05-16T15:56:23.344Z,19.50
2018-05-16T15:58:52.901Z,19.50
2018-05-16T16:01:20.410Z,19.70
2018-05-16T16:03:48.126Z,19.70
2018-05-16T16:06:15.672Z,19.60
2018-05-16T16:08:43.347Z,19.60
2018-05-16T16:11:12.951Z,19.60
2018-05-16T16:13:43.803Z,19.60
2018-05-16T16:16:13.426Z,19.70
2018-05-16T16:18:45.488Z,19.60
2018-05-16T16:21:14.150Z,19.50
2018-05-16T16:23:41.653Z,19.30
2018-05-16T16:26:09.403Z,19.20
2018-05-16T16:28:38.677Z,19.20
2018-05-16T16:31:14.452Z,19.10
2018-05-16T16:33:47.418Z,19.10
2018-05-16T16:36:17.066Z,19.00
2018-05-16T16:38:49.176Z,18.90
2018-05-16T16:41:31.236Z,18.90
2018-05-16T16:43:58.757Z,18.80
2018-05-16T16:46:31.770Z,18.80
2018-05-16T16:49:06.538Z,18.50
2018-05-16T16:51:51.194Z,18.30
2018-05-16T16:54:19.620Z,18.20
2018-05-16T16:56:48.320Z,18.20
2018-05-16T16:59:26.815Z,18.10
2018-05-16T17:02:07.440Z,17.80
2018-05-16T17:04:35.018Z,17.70
2018-05-16T17:07:02.501Z,17.90
2018-05-16T17:09:36.048Z,17.70
2018-05-16T17:12:03.551Z,17.70
2018-05-16T17:14:38.603Z,17.60
2018-05-16T17:17:06.243Z,17.60
2018-05-16T17:19:34.997Z,17.40
2018-05-16T17:22:02.514Z,17.30
2018-05-16T17:24:30.024Z,17.30
2018-05-16T17:26:57.539Z,17.20
2018-05-16T17:29:31.954Z,17.10
2018-05-16T17:32:05.860Z,17.00
2018-05-16T17:34:37.018Z,17.10
2018-05-16T17:37:09.082Z,17.00
2018-05-16T17:39:44.527Z,17.10
2018-05-16T17:42:12.032Z,17.10
2018-05-16T17:44:42.842Z,16.90
2018-05-16T17:47:11.622Z,16.70
2018-05-16T17:49:39.229Z,16.70
2018-05-16T17:52:08.231Z,16.40
2018-05-16T17:54:43.138Z,16.30
2018-05-16T17:57:22.859Z,16.20
2018-05-16T17:59:50.378Z,16.10
2018-05-16T18:02:19.996Z,16.20
2018-05-16T18:04:47.739Z,16.10
2018-05-16T18:07:18.000Z,15.90
2018-05-16T18:09:54.014Z,15.90
2018-05-16T18:12:22.815Z,15.80
2018-05-16T18:15:17.802Z,15.70
2018-05-16T18:17:45.539Z,15.80
2018-05-16T18:20:23.606Z,15.70
2018-05-16T18:22:52.415Z,15.60
2018-05-16T18:25:33.520Z,15.50
2018-05-16T18:28:01.418Z,15.50
2018-05-16T18:30:30.487Z,15.30
2018-05-16T18:33:03.171Z,15.20
2018-05-16T18:35:51.077Z,15.20
2018-05-16T18:38:25.935Z,15.10
2018-05-16T18:40:57.597Z,14.90
2018-05-16T18:43:25.914Z,15.00
2018-05-16T18:46:00.428Z,15.00
2018-05-16T18:48:31.231Z,14.90
2018-05-16T18:51:03.151Z,14.90
2018-05-16T18:53:44.557Z,14.90
2018-05-16T18:56:19.091Z,14.90
2018-05-16T18:58:47.811Z,14.80
2018-05-16T19:01:16.535Z,14.80
2018-05-16T19:03:44.247Z,14.80
2018-05-16T19:06:14.486Z,14.70
2018-05-16T19:08:52.709Z,14.70
2018-05-16T19:11:24.746Z,14.70
2018-05-16T19:13:59.289Z,14.60
2018-05-16T19:16:27.050Z,14.70
2018-05-16T19:18:54.921Z,14.60
2018-05-16T19:21:25.673Z,14.50
2018-05-16T19:23:59.286Z,14.50
2018-05-16T19:26:27.031Z,14.50
2018-05-16T19:28:54.791Z,14.30
2018-05-16T19:31:24.197Z,14.30
2018-05-16T19:33:52.835Z,14.30
2018-05-16T19:36:26.259Z,14.30
2018-05-16T19:38:55.740Z,14.30
2018-05-16T19:41:24.355Z,14.30
2018-05-16T19:44:06.872Z,14.40
2018-05-16T19:46:47.268Z,14.30
2018-05-16T19:49:15.068Z,14.40
2018-05-16T19:51:44.027Z,14.30
2018-05-16T19:54:15.355Z,14.20
2018-05-16T19:56:44.149Z,14.20
2018-05-16T19:59:18.815Z,14.20
2018-05-16T20:01:48.339Z,14.20
2018-05-16T20:07:15.130Z,14.30
2018-05-16T20:09:44.771Z,14.30
2018-05-16T20:12:25.746Z,14.30
2018-05-16T20:14:55.435Z,14.20
2018-05-16T20:17:24.266Z,14.20
2018-05-16T20:19:53.016Z,14.20
2018-05-16T20:22:22.601Z,14.20
2018-05-16T20:24:52.633Z,14.10
2018-05-16T20:27:22.745Z,14.10
2018-05-16T20:29:51.439Z,14.10
2018-05-16T20:32:23.221Z,14.10
2018-05-16T20:34:54.033Z,14.10
2018-05-16T20:37:21.566Z,14.10
2018-05-16T20:39:50.173Z,14.10
2018-05-16T20:42:17.682Z,14.00
2018-05-16T20:44:45.537Z,14.00
2018-05-16T20:47:13.260Z,13.90
2018-05-16T20:49:45.236Z,13.90
2018-05-16T20:52:14.563Z,13.90
2018-05-16T20:54:43.233Z,13.90
2018-05-16T20:57:11.927Z,13.80
2018-05-16T20:59:41.045Z,13.80
2018-05-16T21:02:13.284Z,13.80
2018-05-16T21:04:41.186Z,13.80
2018-05-16T21:07:14.869Z,13.70
2018-05-16T21:09:42.412Z,13.70
2018-05-16T21:12:11.804Z,13.60
2018-05-16T21:14:39.549Z,13.60
2018-05-16T21:17:12.457Z,13.60
2018-05-16T21:19:39.945Z,13.60
2018-05-16T21:22:21.198Z,13.60
2018-05-16T21:24:49.166Z,13.50
2018-05-16T21:27:22.957Z,13.50
2018-05-16T21:29:51.569Z,13.50
2018-05-16T21:32:19.075Z,13.50
2018-05-16T21:34:48.621Z,13.40
2018-05-16T21:37:17.333Z,13.30
2018-05-16T21:39:46.927Z,13.30
2018-05-16T21:42:19.007Z,13.30
2018-05-16T21:44:48.593Z,13.30
2018-05-16T21:47:18.235Z,13.20
2018-05-16T21:49:50.591Z,13.20
2018-05-16T21:52:20.209Z,13.20
2018-05-16T21:54:48.867Z,13.00
2018-05-16T21:57:18.703Z,12.90
2018-05-16T21:59:47.402Z,12.90
2018-05-16T22:02:21.045Z,12.70
2018-05-16T22:04:52.477Z,12.70
2018-05-16T22:07:20.905Z,12.60
2018-05-16T22:09:49.588Z,12.60
2018-05-16T22:12:31.449Z,12.50
2018-05-16T22:15:01.126Z,12.40
2018-05-16T22:17:34.697Z,12.30
2018-05-16T22:20:02.203Z,12.30
2018-05-16T22:22:30.169Z,12.30
2018-05-16T22:24:58.629Z,12.10
2018-05-16T22:27:28.238Z,12.10
2018-05-16T22:29:56.968Z,12.00
2018-05-16T22:32:42.224Z,12.00
2018-05-16T22:35:16.068Z,11.90
2018-05-16T22:37:50.483Z,11.80
2018-05-16T22:40:29.396Z,11.80
2018-05-16T22:43:06.526Z,11.70
2018-05-16T22:45:35.157Z,11.70
2018-05-16T22:48:03.120Z,11.60
2018-05-16T22:50:30.676Z,11.60
2018-05-16T22:52:59.082Z,11.50
2018-05-16T22:55:30.203Z,11.50
2018-05-16T22:58:01.343Z,11.50
2018-05-16T23:00:28.851Z,11.40
2018-05-16T23:03:02.367Z,11.40
2018-05-16T23:05:31.067Z,11.40
2018-05-16T23:08:03.158Z,11.30
2018-05-16T23:10:30.885Z,11.30
2018-05-16T23:12:58.395Z,11.30
2018-05-16T23:15:26.140Z,11.20
2018-05-16T23:17:57.881Z,11.20
2018-05-16T23:20:29.037Z,11.20
2018-05-16T23:22:57.968Z,11.10
2018-05-16T23:25:32.875Z,11.10
2018-05-16T23:28:04.918Z,11.10
2018-05-16T23:30:37.525Z,11.10
2018-05-16T23:33:07.842Z,11.10
2018-05-16T23:35:37.453Z,11.10
2018-05-16T23:38:04.979Z,11.00
2018-05-16T23:40:32.656Z,11.00
2018-05-16T23:43:01.340Z,11.00
2018-05-16T23:45:35.221Z,11.00
2018-05-16T23:48:04.858Z,11.00
2018-05-16T23:50:37.241Z,10.90
2018-05-16T23:53:04.762Z,10.90
2018-05-16T23:55:39.560Z,10.90
2018-05-16T23:58:08.457Z,10.90
